Time;durP1;ratioP1;P1;durP2;ratioP2;P2;SDS_P1;SDS_P2;PMS_P1;PMS_P2;Temp;Humidity;BMP_temperature;BMP_pressure;BME280_temperature;BME280_humidity;BME280_pressure;Samples;Min_cycle;Max_cycle;Signal;HPM_P1;HPM_P2
2022/10/13 00:01:22;;;;;;;12.73;4.72;;;;;;;11.55;44.94;102042.16;7396366;19;19998;-58
2022/10/13 00:03:48;;;;;;;13.95;4.68;;;;;;;11.52;45.19;102050.19;7396849;19;20003;-58
2022/10/13 00:06:17;;;;;;;13.07;4.40;;;;;;;11.56;44.87;102037.53;7396411;19;20007;-58
2022/10/13 00:08:44;;;;;;;11.80;4.75;;;;;;;11.58;45.26;102035.28;7393374;19;20018;-58
2022/10/13 00:11:14;;;;;;;13.07;4.57;;;;;;;11.54;45.18;102034.28;7395741;19;20014;-58
2022/10/13 00:13:40;;;;;;;12.23;4.28;;;;;;;11.55;45.14;102038.63;7396494;19;20053;-58
2022/10/13 00:16:06;;;;;;;11.82;4.40;;;;;;;11.61;45.10;102037.38;7395930;19;20363;-58
2022/10/13 00:18:32;;;;;;;12.60;4.70;;;;;;;11.57;45.23;102022.72;7393535;19;19999;-58
2022/10/13 00:20:58;;;;;;;11.45;4.40;;;;;;;11.58;45.13;102027.84;7395864;19;20729;-58
2022/10/13 00:23:23;;;;;;;13.57;4.10;;;;;;;11.51;45.63;102026.72;7397217;19;20108;-58
2022/10/13 00:25:49;;;;;;;9.98;4.25;;;;;;;11.57;45.64;102028.19;7395730;19;20467;-58
2022/10/13 00:28:18;;;;;;;10.15;4.15;;;;;;;11.55;45.28;102027.69;7391466;19;20074;-58
2022/10/13 00:30:44;;;;;;;11.15;4.55;;;;;;;11.59;45.46;102026.75;7395633;19;20002;-58
2022/10/13 00:33:12;;;;;;;14.30;4.80;;;;;;;11.56;45.23;102023.84;7396319;19;19990;-58
2022/10/13 00:35:42;;;;;;;11.32;4.93;;;;;;;11.54;45.61;102026.06;7394640;19;20106;-58
2022/10/13 00:38:08;;;;;;;12.10;5.07;;;;;;;11.37;46.20;102033.13;7392647;19;20011;-58
2022/10/13 00:40:52;;;;;;;11.70;4.38;;;;;;;11.45;45.71;102029.59;7395615;19;19994;-58
2022/10/13 00:43:21;;;;;;;11.60;4.10;;;;;;;11.54;45.23;102029.63;7394970;19;20443;-58
2022/10/13 00:45:49;;;;;;;11.25;4.57;;;;;;;11.52;45.45;102028.31;7395958;19;19990;-58
2022/10/13 00:48:18;;;;;;;15.98;5.10;;;;;;;11.52;45.82;102028.31;7392669;19;20036;-58
2022/10/13 00:50:44;;;;;;;12.75;4.53;;;;;;;11.55;45.29;102033.16;7395278;19;20003;-58
2022/10/13 00:53:11;;;;;;;12.30;4.88;;;;;;;11.52;45.69;102028.31;7394681;19;19998;-58
2022/10/13 00:55:38;;;;;;;10.40;4.70;;;;;;;11.56;45.50;102030.13;7395773;19;19998;-58
2022/10/13 00:58:07;;;;;;;12.88;4.60;;;;;;;11.57;45.48;102025.44;7392432;19;20062;-59
2022/10/13 01:00:34;;;;;;;11.18;4.50;;;;;;;11.54;45.76;102026.06;7393043;19;19998;-59
2022/10/13 01:03:00;;;;;;;14.63;4.65;;;;;;;11.34;46.29;102028.28;7392733;19;19997;-58
2022/10/13 01:05:27;;;;;;;14.75;5.50;;;;;;;11.27;46.16;102027.91;7394635;19;20002;-58
2022/10/13 01:07:53;;;;;;;13.50;4.32;;;;;;;11.25;46.86;102013.78;7390703;19;20454;-58
2022/10/13 01:10:41;;;;;;;15.23;5.13;;;;;;;11.30;46.74;102009.00;7394887;19;19991;-58
2022/10/13 01:13:19;;;;;;;13.82;4.70;;;;;;;11.34;46.58;102011.88;7392861;19;19995;-58
2022/10/13 01:15:55;;;;;;;10.80;4.53;;;;;;;11.41;46.21;102012.22;7394535;19;20003;-58
2022/10/13 01:18:32;;;;;;;12.88;5.03;;;;;;;11.44;46.56;102010.78;7392453;19;20030;-58
2022/10/13 01:20:58;;;;;;;13.60;5.03;;;;;;;11.41;46.55;102006.75;7392686;19;19999;-58
2022/10/13 01:23:45;;;;;;;13.48;5.05;;;;;;;11.47;46.13;102005.50;7392819;19;20018;-58
2022/10/13 01:26:25;;;;;;;11.88;5.10;;;;;;;11.55;45.56;102000.34;7393823;19;19998;-58
2022/10/13 01:29:08;;;;;;;13.77;5.50;;;;;;;11.54;45.86;101998.72;7390772;19;20066;-58
2022/10/13 01:31:47;;;;;;;15.45;5.70;;;;;;;11.52;45.88;102006.44;7392785;19;20002;-58
2022/10/13 01:34:17;;;;;;;14.15;5.22;;;;;;;11.45;45.74;101988.56;7394442;19;20014;-58
2022/10/13 01:37:03;;;;;;;14.20;5.28;;;;;;;11.39;46.23;101986.31;7392387;19;20006;-58
2022/10/13 01:39:45;;;;;;;11.90;5.15;;;;;;;11.40;45.87;101983.25;7392864;19;20007;-58
2022/10/13 01:42:27;;;;;;;14.02;5.10;;;;;;;11.48;45.95;101984.41;7393995;19;20009;-58
2022/10/13 01:44:59;;;;;;;12.77;5.00;;;;;;;11.54;45.66;101976.84;7394063;19;20157;-58
2022/10/13 01:47:26;;;;;;;13.70;5.53;;;;;;;11.53;45.63;101976.06;7392771;19;20293;-59
2022/10/13 01:49:53;;;;;;;13.63;5.25;;;;;;;11.53;45.61;101981.53;7392827;19;20003;-58
2022/10/13 01:52:23;;;;;;;16.90;5.82;;;;;;;11.48;45.96;101977.00;7390945;19;19998;-58
2022/10/13 01:54:53;;;;;;;13.48;5.72;;;;;;;11.56;45.64;101978.16;7391916;19;20030;-58
2022/10/13 01:57:40;;;;;;;14.18;5.80;;;;;;;11.49;45.93;101975.91;7392512;19;19998;-58
2022/10/13 02:00:15;;;;;;;13.77;5.78;;;;;;;11.49;45.73;101975.91;7392851;19;20010;-58
2022/10/13 02:02:56;;;;;;;18.15;6.63;;;;;;;11.54;45.83;101971.38;7393615;19;20003;-58
2022/10/13 02:05:48;;;;;;;15.25;6.07;;;;;;;11.56;45.67;101969.97;7393508;19;20002;-58
2022/10/13 02:08:29;;;;;;;12.88;5.35;;;;;;;11.62;45.86;101962.41;7391045;19;20003;-58
2022/10/13 02:11:08;;;;;;;16.30;5.97;;;;;;;11.63;45.88;101964.81;7391835;19;20003;-57
2022/10/13 02:13:36;;;;;;;14.55;6.28;;;;;;;11.53;46.16;101959.66;7389977;19;20007;-58
2022/10/13 02:16:01;;;;;;;18.40;6.10;;;;;;;11.48;46.32;101946.13;7393081;19;20002;-57
2022/10/13 02:18:33;;;;;;;17.17;6.20;;;;;;;11.55;46.04;101951.94;7388402;19;20471;-57
2022/10/13 02:21:00;;;;;;;15.52;6.70;;;;;;;11.46;45.91;101949.19;7392702;19;20110;-58
2022/10/13 02:23:27;;;;;;;16.02;6.20;;;;;;;11.46;46.12;101951.94;7391956;19;20083;-57
2022/10/13 02:25:54;;;;;;;13.68;6.55;;;;;;;11.36;46.32;101952.22;7390775;19;20009;-58
2022/10/13 02:28:20;;;;;;;13.25;6.43;;;;;;;11.49;46.31;101945.81;7389711;19;20007;-57
2022/10/13 02:30:46;;;;;;;17.98;7.57;;;;;;;11.52;45.95;101947.09;7391653;19;20063;-58
2022/10/13 02:33:13;;;;;;;16.33;6.43;;;;;;;11.55;45.98;101945.66;7389909;19;19998;-58
2022/10/13 02:35:39;;;;;;;17.50;7.60;;;;;;;11.51;46.26;101941.97;7390797;19;20524;-58
2022/10/13 02:38:05;;;;;;;16.05;6.70;;;;;;;11.39;46.15;101935.19;7388779;19;20655;-58
2022/10/13 02:40:30;;;;;;;15.05;6.95;;;;;;;11.48;45.99;101930.53;7391589;19;20022;-58
2022/10/13 02:42:56;;;;;;;15.88;6.22;;;;;;;11.47;46.38;101939.06;7391628;19;20001;-58
2022/10/13 02:45:22;;;;;;;15.55;6.93;;;;;;;11.39;46.27;101932.47;7391443;19;20443;-58
2022/10/13 02:47:48;;;;;;;16.80;6.40;;;;;;;11.35;46.42;101923.28;7390981;19;20003;-58
2022/10/13 02:50:13;;;;;;;16.17;6.32;;;;;;;11.35;46.38;101925.22;7391692;19;20526;-58
2022/10/13 02:52:46;;;;;;;19.73;6.90;;;;;;;11.38;46.44;101925.38;7388284;19;19997;-58
2022/10/13 02:55:11;;;;;;;18.30;6.72;;;;;;;11.42;46.10;101926.38;7391174;19;20047;-58
2022/10/13 02:57:37;;;;;;;16.65;7.35;;;;;;;11.37;46.34;101918.31;7388998;19;20450;-58
2022/10/13 03:00:12;;;;;;;15.10;6.40;;;;;;;11.43;46.16;101927.94;7388541;19;20079;-58
2022/10/13 03:02:38;;;;;;;14.25;6.72;;;;;;;11.43;46.14;101932.63;7391209;19;20413;-58
2022/10/13 03:05:04;;;;;;;16.98;6.65;;;;;;;11.53;45.87;101940.50;7390642;19;20006;-58
2022/10/13 03:07:29;;;;;;;15.07;6.50;;;;;;;11.47;46.34;101931.69;7391004;19;20058;-58
2022/10/13 03:09:55;;;;;;;14.63;6.53;;;;;;;11.51;46.27;101931.03;7389751;19;19995;-58
2022/10/13 03:12:20;;;;;;;16.45;6.45;;;;;;;11.53;45.92;101932.31;7389617;19;20510;-58
2022/10/13 03:14:46;;;;;;;15.63;6.32;;;;;;;11.47;46.17;101930.84;7389530;19;20002;-58
2022/10/13 03:17:12;;;;;;;18.02;6.95;;;;;;;11.51;46.38;101933.78;7388336;19;19999;-58
2022/10/13 03:19:37;;;;;;;19.45;7.25;;;;;;;11.50;46.30;101932.94;7388254;19;20023;-58
2022/10/13 03:22:03;;;;;;;17.88;6.97;;;;;;;11.39;46.55;101927.00;7388770;19;20352;-58
2022/10/13 03:24:28;;;;;;;16.20;6.70;;;;;;;11.38;46.63;101932.78;7394587;19;20011;-58
2022/10/13 03:26:54;;;;;;;19.00;7.05;;;;;;;11.30;46.70;101928.91;7397414;19;20006;-58
2022/10/13 03:29:19;;;;;;;13.63;6.50;;;;;;;11.35;46.71;101930.69;7395781;19;20347;-57
2022/10/13 03:31:45;;;;;;;17.50;7.03;;;;;;;11.23;46.92;101931.31;7394989;19;20002;-58
2022/10/13 03:34:11;;;;;;;15.68;7.30;;;;;;;11.34;46.74;101929.06;7398341;19;20017;-57
2022/10/13 03:36:44;;;;;;;17.88;7.25;;;;;;;11.38;46.78;101930.06;7395842;19;20428;-58
2022/10/13 03:39:10;;;;;;;17.43;7.30;;;;;;;11.43;46.44;101921.69;7397551;19;20027;-58
2022/10/13 03:41:42;;;;;;;15.93;7.28;;;;;;;11.36;46.99;101919.44;7395820;19;19998;-57
2022/10/13 03:44:11;;;;;;;14.60;7.18;;;;;;;11.40;46.68;101927.78;7397503;19;20015;-58
2022/10/13 03:46:37;;;;;;;17.13;7.30;;;;;;;11.43;46.86;101927.16;7397302;19;19995;-58
2022/10/13 03:49:02;;;;;;;21.33;8.00;;;;;;;11.39;46.88;101924.25;7397121;19;20488;-57
2022/10/13 03:51:28;;;;;;;17.92;7.75;;;;;;;11.39;47.01;101915.25;7395990;19;20009;-57
2022/10/13 03:53:53;;;;;;;20.08;7.53;;;;;;;11.47;46.69;101920.75;7397787;19;19998;-58
2022/10/13 03:56:25;;;;;;;20.40;8.23;;;;;;;11.43;46.81;101921.69;7397252;19;19995;-58
2022/10/13 03:58:55;;;;;;;13.82;7.00;;;;;;;11.47;46.70;101923.47;7393409;19;20006;-58
2022/10/13 04:01:22;;;;;;;19.42;7.97;;;;;;;11.48;47.04;101916.06;7397027;19;20024;-58
2022/10/13 04:03:49;;;;;;;17.52;8.48;;;;;;;11.48;46.87;101908.66;7396635;19;20009;-58
2022/10/13 04:06:15;;;;;;;19.40;7.97;;;;;;;11.47;47.13;101904.34;7396931;19;20003;-58
2022/10/13 04:08:40;;;;;;;18.60;8.45;;;;;;;11.53;47.01;101906.91;7393058;19;20016;-58
2022/10/13 04:11:09;;;;;;;24.33;9.18;;;;;;;11.54;47.01;101901.13;7394755;19;20452;-58
2022/10/13 04:13:35;;;;;;;19.67;7.88;;;;;;;11.47;47.02;101901.59;7396401;19;20009;-57
2022/10/13 04:16:11;;;;;;;18.20;8.52;;;;;;;11.55;46.95;101891.78;7397071;19;19995;-57
2022/10/13 04:18:37;;;;;;;18.20;8.38;;;;;;;11.55;47.07;101890.97;7394332;19;20006;-58
2022/10/13 04:21:07;;;;;;;18.83;7.97;;;;;;;11.44;47.33;101891.31;7396265;19;20459;-57
2022/10/13 04:23:33;;;;;;;19.55;8.57;;;;;;;11.42;47.21;101890.81;7394510;19;20003;-58
2022/10/13 04:25:59;;;;;;;23.08;9.27;;;;;;;11.44;47.39;101885.03;7394554;19;20031;-58
2022/10/13 04:28:24;;;;;;;22.10;8.85;;;;;;;11.43;47.28;101881.47;7393412;19;20342;-58
2022/10/13 04:30:50;;;;;;;19.38;8.93;;;;;;;11.42;47.35;101866.22;7393868;19;20479;-57
2022/10/13 04:33:15;;;;;;;15.05;7.82;;;;;;;11.40;47.76;101868.44;7395819;19;20002;-58
2022/10/13 04:35:47;;;;;;;19.00;9.10;;;;;;;11.37;47.43;101863.66;7391482;19;20007;-58
2022/10/13 04:38:13;;;;;;;21.33;9.27;;;;;;;11.33;47.79;101857.19;7391628;19;20468;-58
2022/10/13 04:40:38;;;;;;;29.30;10.18;;;;;;;11.42;47.65;101847.09;7394929;19;19991;-58
2022/10/13 04:43:04;;;;;;;20.85;9.77;;;;;;;11.51;47.33;101852.56;7395985;19;20305;-58
2022/10/13 04:45:30;;;;;;;24.85;9.15;;;;;;;11.48;47.73;101851.25;7394233;19;20003;-58
2022/10/13 04:47:55;;;;;;;22.25;10.43;;;;;;;11.45;47.68;101851.88;7391935;19;20036;-58
2022/10/13 04:50:21;;;;;;;22.05;10.52;;;;;;;11.54;47.63;101851.09;7393343;19;19998;-58
2022/10/13 04:52:46;;;;;;;25.88;11.40;;;;;;;11.56;47.71;101854.31;7390766;19;20471;-57
2022/10/13 04:55:12;;;;;;;24.25;10.85;;;;;;;11.55;47.96;101852.69;7395742;19;19999;-58
2022/10/13 04:57:37;;;;;;;23.67;10.43;;;;;;;11.53;47.99;101860.44;7394097;19;20001;-58
2022/10/13 05:00:06;;;;;;;23.10;11.18;;;;;;;11.47;48.32;101868.78;7394113;19;20010;-58
2022/10/13 05:02:34;;;;;;;23.77;11.82;;;;;;;11.56;48.20;101881.66;7393297;19;20010;-58
2022/10/13 05:04:59;;;;;;;24.67;10.70;;;;;;;11.57;47.91;101873.16;7393679;19;20002;-58
2022/10/13 05:07:25;;;;;;;24.00;11.02;;;;;;;11.61;48.11;101879.56;7391961;19;19987;-58
2022/10/13 05:09:51;;;;;;;23.60;10.52;;;;;;;11.54;48.48;101854.66;7393993;19;20003;-58
2022/10/13 05:12:16;;;;;;;23.33;11.23;;;;;;;11.59;48.17;101849.00;7391074;19;20006;-58
2022/10/13 05:14:42;;;;;;;21.95;11.00;;;;;;;11.62;48.16;101842.06;7393822;19;19995;-58
2022/10/13 05:17:08;;;;;;;23.58;11.65;;;;;;;11.68;48.10;101835.31;7394175;19;20010;-58
2022/10/13 05:19:33;;;;;;;23.38;12.07;;;;;;;11.68;48.03;101829.84;7393097;19;19991;-58
2022/10/13 05:21:59;;;;;;;23.33;11.80;;;;;;;11.67;48.25;101833.69;7392057;19;20005;-57
2022/10/13 05:24:35;;;;;;;23.73;11.88;;;;;;;11.66;48.37;101843.06;7393662;19;20483;-57
2022/10/13 05:27:11;;;;;;;24.77;11.82;;;;;;;11.69;48.39;101831.47;7393263;19;19995;-58
2022/10/13 05:29:38;;;;;;;27.88;12.57;;;;;;;11.65;48.50;101831.28;7391747;19;19995;-57
2022/10/13 05:32:04;;;;;;;24.65;11.90;;;;;;;11.65;48.62;101830.50;7390388;19;19998;-57
2022/10/13 05:34:31;;;;;;;28.75;12.90;;;;;;;11.68;48.46;101835.31;7392767;19;19998;-57
2022/10/13 05:36:58;;;;;;;24.17;12.63;;;;;;;11.60;48.73;101836.13;7389259;19;20011;-58
2022/10/13 05:39:23;;;;;;;25.23;12.13;;;;;;;11.72;48.29;101827.28;7391964;19;20013;-58
2022/10/13 05:41:49;;;;;;;30.13;12.93;;;;;;;11.74;48.35;101827.75;7396752;19;19999;-59
2022/10/13 05:44:16;;;;;;;28.45;13.30;;;;;;;11.74;48.53;101834.03;7395951;19;19995;-58
2022/10/13 05:46:43;;;;;;;25.35;12.48;;;;;;;11.48;49.22;101834.84;7395659;19;20022;-58
2022/10/13 05:49:09;;;;;;;22.88;11.13;;;;;;;11.58;49.00;101830.97;7392668;19;20035;-58
2022/10/13 05:51:51;;;;;;;27.23;12.75;;;;;;;11.63;49.09;101833.56;7392461;19;20015;-58
2022/10/13 05:54:29;;;;;;;27.38;12.95;;;;;;;11.63;48.97;101828.09;7396593;19;20002;-57
2022/10/13 05:56:55;;;;;;;30.08;12.13;;;;;;;11.68;48.80;101825.19;7393047;19;20046;-57
2022/10/13 05:59:22;;;;;;;23.58;13.07;;;;;;;11.77;48.47;101832.56;7392073;19;20467;-57
2022/10/13 06:01:48;;;;;;;25.08;12.80;;;;;;;11.71;48.96;101831.94;7391542;19;20018;-57
2022/10/13 06:04:29;;;;;;;25.58;12.52;;;;;;;11.72;48.98;101830.81;7392299;19;19999;-57
2022/10/13 06:06:54;;;;;;;28.20;12.20;;;;;;;11.68;49.00;101835.31;7390691;19;19998;-57
2022/10/13 06:09:20;;;;;;;26.77;13.05;;;;;;;11.72;49.16;101825.31;7390887;19;20002;-56
2022/10/13 06:11:46;;;;;;;24.50;12.73;;;;;;;11.64;49.38;101818.75;7389205;19;20037;-57
2022/10/13 06:14:11;;;;;;;29.08;14.50;;;;;;;11.64;49.55;101826.16;7392105;19;20009;-57
2022/10/13 06:16:37;;;;;;;25.63;12.93;;;;;;;11.67;49.34;101809.91;7392940;19;20011;-57
2022/10/13 06:19:03;;;;;;;25.80;13.23;;;;;;;11.73;49.35;101812.47;7390401;19;19998;-56
2022/10/13 06:21:29;;;;;;;28.50;13.32;;;;;;;11.81;49.00;101817.94;7392579;19;20036;-57
2022/10/13 06:23:55;;;;;;;28.10;14.38;;;;;;;11.76;49.38;101809.88;7390328;19;20014;-57
2022/10/13 06:26:21;;;;;;;25.40;12.95;;;;;;;11.70;49.42;101804.91;7390416;19;19995;-56
2022/10/13 06:28:46;;;;;;;26.30;13.23;;;;;;;11.67;49.69;101809.09;7389203;19;20536;-57
2022/10/13 06:31:13;;;;;;;27.23;14.00;;;;;;;11.70;49.70;101811.19;7391262;19;19999;-55
2022/10/13 06:33:38;;;;;;;27.75;14.95;;;;;;;11.84;49.48;101803.63;7391086;19;20014;-57
2022/10/13 06:36:05;;;;;;;30.08;14.73;;;;;;;11.89;49.52;101801.84;7391012;19;20002;-57
2022/10/13 06:38:32;;;;;;;26.98;14.18;;;;;;;11.92;49.43;101795.72;7388120;19;20367;-57
2022/10/13 06:41:02;;;;;;;28.20;13.80;;;;;;;11.87;49.72;101801.38;7390174;19;20082;-57
2022/10/13 06:43:28;;;;;;;29.27;14.52;;;;;;;11.86;49.76;101803.31;7391839;19;20031;-58
2022/10/13 06:45:58;;;;;;;26.35;14.38;;;;;;;11.87;49.79;101809.56;7391419;19;20009;-57
2022/10/13 06:48:25;;;;;;;25.75;13.80;;;;;;;11.85;50.02;101821.63;7387893;19;20087;-57
2022/10/13 06:50:51;;;;;;;28.60;15.10;;;;;;;11.90;49.72;101819.88;7390818;19;20092;-57
2022/10/13 06:53:16;;;;;;;24.45;13.68;;;;;;;11.88;49.97;101808.47;7391835;19;20496;-57
2022/10/13 06:55:42;;;;;;;24.15;13.98;;;;;;;11.94;49.80;101804.41;7390728;19;20320;-57
2022/10/13 06:58:09;;;;;;;25.90;14.38;;;;;;;11.78;50.18;101807.63;7389312;19;20305;-58
2022/10/13 07:00:36;;;;;;;27.63;13.82;;;;;;;11.92;50.01;101803.94;7403114;19;20009;-57
2022/10/13 07:03:01;;;;;;;28.10;14.32;;;;;;;12.03;49.70;101802.44;7404375;19;20003;-55
2022/10/13 07:05:26;;;;;;;29.38;14.70;;;;;;;12.05;49.69;101797.44;7405605;19;20332;-56
2022/10/13 07:07:55;;;;;;;31.83;15.25;;;;;;;12.08;49.59;101796.00;7401828;19;20018;-56
2022/10/13 07:10:21;;;;;;;26.20;14.88;;;;;;;11.99;49.98;101790.53;7402453;19;20001;-56
2022/10/13 07:12:46;;;;;;;28.17;15.57;;;;;;;12.02;50.00;101798.09;7402217;19;20378;-56
2022/10/13 07:15:12;;;;;;;32.42;15.85;;;;;;;12.07;49.73;101814.34;7404874;19;20022;-56
2022/10/13 07:17:38;;;;;;;29.55;15.05;;;;;;;12.15;49.69;101815.44;7403917;19;20034;-56
2022/10/13 07:20:04;;;;;;;29.52;16.08;;;;;;;12.12;49.79;101811.41;7404534;19;20085;-56
2022/10/13 07:22:30;;;;;;;33.58;16.48;;;;;;;12.15;49.79;101818.97;7404155;19;20114;-56
2022/10/13 07:24:56;;;;;;;26.42;14.38;;;;;;;12.22;49.79;101816.56;7404514;19;20005;-56
2022/10/13 07:27:21;;;;;;;33.33;15.20;;;;;;;12.28;49.72;101814.44;7403024;19;19990;-56
2022/10/13 07:29:47;;;;;;;24.98;15.02;;;;;;;12.30;49.93;101814.09;7403720;19;19991;-56
2022/10/13 07:32:12;;;;;;;24.58;13.93;;;;;;;12.35;49.62;101819.41;7400573;19;20070;-56
2022/10/13 07:34:38;;;;;;;28.38;15.00;;;;;;;12.33;49.71;101817.00;7404497;19;19998;-56
2022/10/13 07:37:04;;;;;;;27.13;14.98;;;;;;;12.31;49.81;101810.25;7401613;19;20015;-56
2022/10/13 07:39:29;;;;;;;26.05;14.82;;;;;;;12.34;49.55;101801.34;7403756;19;20058;-56
2022/10/13 07:41:55;;;;;;;30.83;15.75;;;;;;;12.34;49.84;101804.91;7404228;19;20357;-56
2022/10/13 07:44:21;;;;;;;28.38;15.82;;;;;;;12.32;49.95;101803.63;7404130;19;20006;-56
2022/10/13 07:46:46;;;;;;;26.90;15.05;;;;;;;12.38;49.69;101803.13;7403525;19;20006;-56
2022/10/13 07:49:12;;;;;;;29.60;15.73;;;;;;;12.34;50.04;101817.78;7403992;19;19991;-56
2022/10/13 07:51:38;;;;;;;28.90;14.98;;;;;;;12.30;50.15;101814.09;7402883;19;20094;-56
2022/10/13 07:54:03;;;;;;;29.75;15.65;;;;;;;12.44;49.86;101811.97;7403239;19;20085;-56
2022/10/13 07:56:29;;;;;;;31.67;15.93;;;;;;;12.37;49.81;101804.28;7404668;19;20003;-56
2022/10/13 07:58:54;;;;;;;25.88;14.52;;;;;;;12.46;49.88;101796.00;7401194;19;20119;-56
2022/10/13 08:01:20;;;;;;;29.73;14.73;;;;;;;12.47;49.84;101808.53;7403727;19;20002;-56
2022/10/13 08:03:45;;;;;;;30.17;15.18;;;;;;;12.49;49.68;101821.91;7403069;19;20009;-57
2022/10/13 08:06:11;;;;;;;25.75;15.02;;;;;;;12.51;50.05;101817.72;7403562;19;20018;-56
2022/10/13 08:08:37;;;;;;;24.48;15.02;;;;;;;12.58;49.87;101806.25;7399212;19;20002;-56
2022/10/13 08:11:09;;;;;;;29.23;15.10;;;;;;;12.51;50.25;101806.75;7394209;19;20010;-56
2022/10/13 08:13:35;;;;;;;28.25;14.85;;;;;;;12.65;49.71;101803.00;7396611;19;19999;-56
2022/10/13 08:16:08;;;;;;;29.20;15.45;;;;;;;12.73;49.77;101807.63;7395931;19;19998;-56
2022/10/13 08:18:34;;;;;;;28.45;15.48;;;;;;;12.75;49.65;101806.13;7394204;19;20050;-57
2022/10/13 08:21:01;;;;;;;30.92;15.52;;;;;;;12.82;49.73;101800.13;7395772;19;20451;-56
2022/10/13 08:23:27;;;;;;;32.80;15.35;;;;;;;12.91;49.65;101792.69;7396087;19;19999;-57
2022/10/13 08:25:53;;;;;;;28.42;16.10;;;;;;;12.96;49.53;101800.72;7395990;19;20032;-56
2022/10/13 08:28:22;;;;;;;29.58;14.80;;;;;;;13.00;49.54;101806.34;7393255;19;20003;-57
2022/10/13 08:30:49;;;;;;;27.77;14.75;;;;;;;12.92;49.81;101799.75;7396127;19;20007;-56
2022/10/13 08:33:15;;;;;;;29.85;15.73;;;;;;;12.91;50.09;101798.19;7395907;19;20498;-57
2022/10/13 08:35:41;;;;;;;31.00;15.90;;;;;;;13.14;49.51;101790.44;7395788;19;20022;-57
2022/10/13 08:38:14;;;;;;;31.42;15.55;;;;;;;13.23;49.65;101786.81;7393066;19;20024;-56
2022/10/13 08:40:39;;;;;;;29.23;14.93;;;;;;;13.35;49.13;101778.63;7395353;19;20013;-57
2022/10/13 08:43:14;;;;;;;28.50;15.25;;;;;;;13.38;49.28;101788.16;7394007;19;19999;-57
2022/10/13 08:45:40;;;;;;;26.92;14.40;;;;;;;13.40;49.27;101792.13;7395389;19;20034;-57
2022/10/13 08:48:11;;;;;;;25.85;14.25;;;;;;;13.44;49.45;101786.78;7391991;19;20482;-56
2022/10/13 08:50:41;;;;;;;26.92;14.35;;;;;;;13.43;49.32;101793.41;7395291;19;20073;-56
2022/10/13 08:53:24;;;;;;;28.38;13.98;;;;;;;13.50;49.53;101790.94;7394725;19;20012;-57
2022/10/13 08:55:54;;;;;;;26.42;14.13;;;;;;;13.56;49.15;101795.06;7393377;19;20002;-56
2022/10/13 08:58:26;;;;;;;26.42;14.40;;;;;;;13.62;49.20;101779.19;7392020;19;20002;-57
2022/10/13 09:01:15;;;;;;;27.05;15.30;;;;;;;13.61;49.74;101777.56;7394718;19;20002;-56
2022/10/13 09:03:49;;;;;;;30.23;15.00;;;;;;;13.67;49.16;101766.06;7393120;19;20018;-56
2022/10/13 09:06:28;;;;;;;32.78;14.65;;;;;;;13.78;49.10;101762.91;7395104;19;19995;-56
2022/10/13 09:08:58;;;;;;;29.35;15.00;;;;;;;13.81;49.24;101757.53;7389465;19;20002;-57
2022/10/13 09:11:29;;;;;;;26.30;14.80;;;;;;;13.82;49.28;101741.84;7393867;19;20072;-56
2022/10/13 09:13:56;;;;;;;27.17;14.68;;;;;;;13.82;49.24;101742.66;7397625;19;20034;-56
2022/10/13 09:16:34;;;;;;;25.05;14.48;;;;;;;13.94;48.89;101752.88;7394328;19;20316;-56
2022/10/13 09:19:19;;;;;;;27.23;14.27;;;;;;;14.04;49.00;101749.69;7394037;19;20013;-56
2022/10/13 09:21:46;;;;;;;28.27;14.02;;;;;;;14.04;49.17;101752.44;7393299;19;20006;-57
2022/10/13 09:24:15;;;;;;;27.63;14.55;;;;;;;14.02;49.19;101751.16;7393315;19;19995;-56
2022/10/13 09:26:44;;;;;;;27.00;14.25;;;;;;;13.95;49.63;101751.75;7392963;19;20012;-56
2022/10/13 09:29:15;;;;;;;26.63;14.02;;;;;;;14.02;49.09;101760.19;7392901;19;19994;-56
2022/10/13 09:31:41;;;;;;;25.67;14.00;;;;;;;14.18;48.77;101756.81;7392986;19;20014;-56
2022/10/13 09:34:18;;;;;;;30.58;14.70;;;;;;;14.38;48.80;101764.09;7393726;19;20447;-56
2022/10/13 09:37:04;;;;;;;28.83;15.00;;;;;;;14.50;48.35;101770.75;7393159;19;20011;-56
2022/10/13 09:39:32;;;;;;;24.90;14.15;;;;;;;14.60;48.50;101759.28;7390544;19;20079;-56
2022/10/13 09:42:19;;;;;;;29.63;15.43;;;;;;;14.42;48.79;101765.00;7393360;19;20013;-56
2022/10/13 09:44:46;;;;;;;25.63;14.60;;;;;;;14.42;48.73;101765.00;7392736;19;20090;-57
2022/10/13 09:47:24;;;;;;;27.90;14.00;;;;;;;14.56;48.95;101752.88;7392604;19;20010;-56
2022/10/13 09:50:16;;;;;;;26.15;13.93;;;;;;;14.44;49.24;101762.75;7391929;19;19999;-56
2022/10/13 09:52:44;;;;;;;25.38;14.43;;;;;;;14.08;49.83;101760.78;7391443;19;20008;-56
2022/10/13 09:55:31;;;;;;;29.80;14.90;;;;;;;14.41;49.22;101757.94;7393656;19;20018;-56
2022/10/13 09:58:05;;;;;;;28.98;14.88;;;;;;;14.59;48.79;101765.91;7391677;19;20003;-56
2022/10/13 10:00:31;;;;;;;24.15;13.85;;;;;;;14.62;48.76;101757.00;7391355;19;20017;-56
2022/10/13 10:03:16;;;;;;;26.90;14.40;;;;;;;14.60;48.74;101756.53;7393466;19;20031;-56
2022/10/13 10:06:13;;;;;;;26.02;14.82;;;;;;;14.62;49.34;101740.50;7393293;19;20070;-56
2022/10/13 10:09:03;;;;;;;27.48;14.23;;;;;;;14.64;48.81;101738.19;7387818;19;19999;-57
2022/10/13 10:11:33;;;;;;;31.52;14.65;;;;;;;14.69;49.09;101748.94;7391647;19;20078;-56
2022/10/13 10:14:21;;;;;;;29.27;15.63;;;;;;;14.67;49.12;101737.50;7392100;19;20521;-57
2022/10/13 10:17:26;;;;;;;29.88;15.45;;;;;;;14.67;49.26;101732.03;7392729;19;20025;-57
2022/10/13 10:19:58;;;;;;;25.83;14.73;;;;;;;14.75;48.97;101736.59;7389717;19;20014;-57
2022/10/13 10:22:39;;;;;;;27.55;15.15;;;;;;;14.71;48.91;101735.69;7392632;19;20002;-56
2022/10/13 10:25:16;;;;;;;30.08;14.85;;;;;;;14.60;49.62;101731.81;7393165;19;20009;-57
2022/10/13 10:28:11;;;;;;;26.30;14.50;;;;;;;14.68;49.11;101733.63;7388841;19;20022;-55
2022/10/13 10:30:45;;;;;;;25.98;14.48;;;;;;;14.77;49.24;101730.78;7392007;19;20007;-57
2022/10/13 10:33:17;;;;;;;32.72;15.10;;;;;;;14.94;49.01;101732.44;7387532;19;20329;-56
2022/10/13 10:35:51;;;;;;;26.88;14.75;;;;;;;14.94;48.94;101733.22;7390273;19;20002;-56
2022/10/13 10:38:48;;;;;;;30.77;15.20;;;;;;;14.82;49.70;101740.72;7388787;19;20015;-56
2022/10/13 10:41:35;;;;;;;25.70;15.23;;;;;;;14.82;49.52;101736.03;7391831;19;20430;-57
2022/10/13 10:44:20;;;;;;;28.98;14.90;;;;;;;14.78;49.41;101733.16;7391930;19;20022;-57
2022/10/13 10:46:48;;;;;;;30.13;15.15;;;;;;;14.91;49.02;101724.88;7389745;19;20002;-57
2022/10/13 10:49:30;;;;;;;27.63;14.98;;;;;;;15.06;48.79;101721.38;7388694;19;20002;-57
2022/10/13 10:51:58;;;;;;;27.15;13.98;;;;;;;15.16;48.92;101706.34;7390750;19;19999;-57
2022/10/13 10:54:47;;;;;;;32.08;14.43;;;;;;;14.98;49.05;101714.09;7391849;19;20051;-57
2022/10/13 10:57:36;;;;;;;27.63;14.52;;;;;;;15.15;49.01;101715.75;7389268;19;20010;-56
2022/10/13 11:00:18;;;;;;;28.73;14.32;;;;;;;15.15;49.07;101718.50;7388274;19;20024;-56
2022/10/13 11:02:46;;;;;;;25.85;13.98;;;;;;;15.07;49.17;101722.19;7393680;19;20010;-57
2022/10/13 11:05:12;;;;;;;26.60;13.70;;;;;;;15.10;48.90;101702.25;7390399;19;20002;-56
2022/10/13 11:07:38;;;;;;;33.00;14.80;;;;;;;15.16;48.79;101714.59;7390031;19;20006;-56
2022/10/13 11:10:12;;;;;;;25.02;14.00;;;;;;;15.23;49.07;101702.97;7388382;19;19999;-56
2022/10/13 11:12:50;;;;;;;27.92;14.15;;;;;;;15.30;48.91;101698.47;7387795;19;20073;-57
2022/10/13 11:15:23;;;;;;;27.55;13.82;;;;;;;15.39;48.70;101687.31;7391496;19;20026;-56
2022/10/13 11:17:49;;;;;;;27.60;14.60;;;;;;;15.39;48.48;101687.31;7389908;19;20124;-56
2022/10/13 11:20:37;;;;;;;25.65;13.35;;;;;;;15.36;48.67;101694.34;7390145;19;20329;-57
2022/10/13 11:23:03;;;;;;;26.63;14.40;;;;;;;15.44;48.61;101678.00;7390328;19;20062;-57
2022/10/13 11:25:38;;;;;;;28.95;13.70;;;;;;;15.45;48.65;101683.16;7395462;19;20007;-57